Time;durP1;ratioP1;P1;durP2;ratioP2;P2;SDS_P1;SDS_P2;PMS_P1;PMS_P2;Temp;Humidity;BMP_temperature;BMP_pressure;BME280_temperature;BME280_humidity;BME280_pressure;Samples;Min_cycle;Max_cycle;Signal;HPM_P1;HPM_P2
2022/08/23 00:02:22;;;;;;;19.17;1.63;;;;;;;25.78;59.44;99487.25;7313113;19;129200;-41
2022/08/23 00:04:48;;;;;;;41.10;3.40;;;;;;;25.74;59.62;99472.78;7312740;19;129311;-40
2022/08/23 00:07:14;;;;;;;16.47;1.53;;;;;;;25.80;59.61;99482.63;7315822;19;129604;-42
2022/08/23 00:09:40;;;;;;;16.27;1.40;;;;;;;25.78;59.09;99476.72;7162371;19;2946781;-40
2022/08/23 00:12:08;;;;;;;25.37;2.27;;;;;;;25.74;59.37;99472.78;7315675;19;129347;-40
2022/08/23 00:14:37;;;;;;;34.65;2.75;;;;;;;25.72;59.32;99464.22;7314991;19;130996;-37
2022/08/23 00:17:05;;;;;;;14.85;1.25;;;;;;;25.79;58.81;99474.91;7317167;19;128768;-39
2022/08/23 00:19:30;;;;;;;17.40;1.42;;;;;;;25.78;59.30;99468.81;7316642;19;129105;-40
2022/08/23 00:21:56;;;;;;;17.10;1.47;;;;;;;25.80;59.90;99481.81;7315235;19;129151;-38
2022/08/23 00:24:23;;;;;;;37.93;3.10;;;;;;;25.66;56.88;99475.44;7314171;19;129704;-39
2022/08/23 00:27:00;;;;;;;17.55;1.75;;;;;;;25.47;55.16;99470.53;7317388;19;129048;-41
2022/08/23 00:29:31;;;;;;;15.98;1.40;;;;;;;25.51;57.62;99471.84;7316259;19;128971;-41
2022/08/23 00:31:57;;;;;;;18.58;1.70;;;;;;;25.54;57.98;99466.25;7315957;19;129308;-41
2022/08/23 00:34:23;;;;;;;22.80;1.80;;;;;;;25.68;59.00;99478.72;7315161;19;129398;-38
2022/08/23 00:36:49;;;;;;;41.03;3.40;;;;;;;25.72;59.20;99476.59;7316817;19;128798;-38
2022/08/23 00:39:16;;;;;;;17.40;1.63;;;;;;;25.67;58.27;99459.47;7316780;19;129061;-38
2022/08/23 00:41:42;;;;;;;;;;;;;;;25.81;61.20;99479.03;7316174;19;129053;-39
2022/08/23 00:49:52;;;;;;;26.75;2.25;;;;;;;25.76;59.58;99464.72;7315662;19;128908;-38
2022/08/23 00:52:32;;;;;;;31.13;2.42;;;;;;;25.76;60.75;99465.53;7314901;19;129305;-40
2022/08/23 00:54:58;;;;;;;26.13;2.17;;;;;;;25.77;58.88;99466.38;7313683;19;129464;-39
2022/08/23 00:57:26;;;;;;;18.93;1.50;;;;;;;25.75;59.68;99466.50;7315780;19;128805;-38
2022/08/23 00:59:51;;;;;;;8.80;0.95;;;;;;;25.68;59.74;99453.19;7315613;19;129326;-40
2022/08/23 01:02:17;;;;;;;26.63;2.07;;;;;;;25.77;59.77;99461.91;7314205;19;130073;-40
2022/08/23 01:04:48;;;;;;;20.87;1.93;;;;;;;25.72;59.69;99447.63;7314209;19;130133;-40
2022/08/23 01:07:24;;;;;;;26.92;2.47;;;;;;;25.78;60.59;99457.47;7316133;19;128841;-38
2022/08/23 01:09:55;;;;;;;14.60;1.40;;;;;;;25.76;59.62;99455.00;7315177;19;129102;-39
2022/08/23 01:12:30;;;;;;;26.80;2.55;;;;;;;25.47;55.60;99455.56;7314521;19;129055;-39
2022/08/23 01:15:01;;;;;;;25.52;2.05;;;;;;;25.44;54.88;99455.91;7313076;19;131173;-38
2022/08/23 01:17:34;;;;;;;41.47;3.22;;;;;;;25.57;57.14;99450.09;7315245;19;128866;-39
2022/08/23 01:20:05;;;;;;;18.23;1.48;;;;;;;25.62;59.11;99464.41;7316720;19;130006;-37
2022/08/23 01:23:04;;;;;;;7.88;0.80;;;;;;;25.69;60.96;99459.28;7314298;19;130611;-41
2022/08/23 01:25:32;;;;;;;12.73;1.08;;;;;;;25.73;58.56;99465.88;7313663;19;130404;-41
2022/08/23 01:27:58;;;;;;;14.43;1.30;;;;;;;25.76;59.12;99454.16;7315788;19;129235;-39
2022/08/23 01:30:28;;;;;;;17.13;1.50;;;;;;;25.77;59.99;99456.63;7314781;19;129505;-39
2022/08/23 01:32:58;;;;;;;38.50;3.00;;;;;;;25.76;59.66;99460.28;7311422;19;129403;-40
2022/08/23 01:35:54;;;;;;;20.13;1.88;;;;;;;25.78;61.18;99460.94;7312320;19;130436;-37
2022/08/23 01:38:21;;;;;;;34.35;2.67;;;;;;;25.76;58.59;99455.00;7314504;19;129332;-37
2022/08/23 01:40:47;;;;;;;15.25;1.30;;;;;;;25.78;59.23;99455.66;7315232;19;129305;-40
2022/08/23 01:43:14;;;;;;;15.43;1.47;;;;;;;25.77;59.55;99456.63;7312096;19;129376;-39
2022/08/23 01:45:40;;;;;;;24.00;2.00;;;;;;;25.77;59.31;99455.84;7310902;19;129381;-40
2022/08/23 01:48:06;;;;;;;37.13;2.88;;;;;;;25.79;59.60;99461.72;7315052;19;129518;-39
2022/08/23 01:50:32;;;;;;;12.33;1.23;;;;;;;25.79;58.97;99456.47;7314436;19;129437;-40
2022/08/23 01:52:58;;;;;;;17.03;1.47;;;;;;;25.77;59.40;99461.91;7312779;19;131253;-40
2022/08/23 01:55:24;;;;;;;28.83;2.27;;;;;;;25.79;59.72;99459.94;7310995;19;131165;-40
2022/08/23 01:57:52;;;;;;;32.53;2.67;;;;;;;25.77;59.85;99461.09;7314505;19;129511;-39
2022/08/23 02:00:21;;;;;;;16.15;1.40;;;;;;;25.49;55.26;99463.28;7313758;19;129318;-41
2022/08/23 02:02:46;;;;;;;19.00;1.80;;;;;;;25.47;54.94;99473.16;7312687;19;129988;-40
2022/08/23 02:05:12;;;;;;;19.23;1.60;;;;;;;25.54;57.05;99466.25;7311912;19;130427;-40
2022/08/23 02:07:37;;;;;;;20.23;1.73;;;;;;;25.63;58.41;99462.63;7313872;19;128939;-39
2022/08/23 02:10:05;;;;;;;13.00;1.17;;;;;;;25.68;59.06;99462.94;7314124;19;129149;-43
2022/08/23 02:12:30;;;;;;;12.40;1.05;;;;;;;25.72;58.73;99463.41;7312524;19;131070;-40
2022/08/23 02:14:55;;;;;;;24.93;2.33;;;;;;;25.73;58.95;99460.63;7311556;19;129720;-39
2022/08/23 02:17:21;;;;;;;26.27;2.07;;;;;;;25.77;59.11;99463.75;7314075;19;129718;-39
2022/08/23 02:19:46;;;;;;;15.47;1.27;;;;;;;25.76;58.40;99457.63;7313890;19;129528;-37
2022/08/23 02:22:12;;;;;;;3.47;0.40;;;;;;;25.72;58.89;99453.69;7312846;19;130086;-37
2022/08/23 02:24:44;;;;;;;24.73;2.07;;;;;;;25.76;59.04;99462.91;7309786;19;129349;-37
2022/08/23 02:27:10;;;;;;;33.50;2.60;;;;;;;25.77;58.74;99466.38;7312869;19;128897;-40
2022/08/23 02:29:37;;;;;;;17.30;1.60;;;;;;;25.76;59.20;99464.72;7313446;19;129166;-38
2022/08/23 02:32:03;;;;;;;11.18;1.13;;;;;;;25.78;59.80;99468.00;7311521;19;129764;-39
2022/08/23 02:34:30;;;;;;;26.80;2.25;;;;;;;25.77;59.42;99459.25;7310750;19;130255;-37
2022/08/23 02:36:56;;;;;;;32.08;2.53;;;;;;;25.77;58.44;99472.44;7313016;19;129239;-38
2022/08/23 02:39:22;;;;;;;17.43;1.37;;;;;;;25.78;59.89;99468.81;7312905;19;129309;-39
2022/08/23 02:41:48;;;;;;;14.97;1.23;;;;;;;25.76;59.44;99456.81;7311385;19;131038;-39
2022/08/23 02:44:14;;;;;;;21.95;1.98;;;;;;;25.78;59.96;99463.56;7309279;19;130177;-38
2022/08/23 02:46:41;;;;;;;26.38;2.08;;;;;;;25.77;59.99;99467.16;7312693;19;128927;-38
2022/08/23 02:49:06;;;;;;;15.20;1.40;;;;;;;25.43;55.70;99470.06;7312926;19;129361;-39
2022/08/23 02:51:32;;;;;;;22.53;2.23;;;;;;;25.44;54.74;99465.59;7311888;19;130118;-40
2022/08/23 02:53:57;;;;;;;31.17;2.53;;;;;;;25.56;57.17;99465.09;7311512;19;130045;-40
2022/08/23 02:56:23;;;;;;;26.93;2.17;;;;;;;25.64;58.68;99466.88;7312816;19;129360;-39
2022/08/23 02:58:50;;;;;;;16.97;1.60;;;;;;;25.68;59.27;99458.47;7312514;19;129562;-41
2022/08/23 03:01:18;;;;;;;16.60;1.42;;;;;;;25.70;58.54;99460.97;7312403;19;130089;-39
2022/08/23 03:03:44;;;;;;;38.03;3.33;;;;;;;25.75;58.82;99468.34;7309996;19;130905;-41
2022/08/23 03:06:11;;;;;;;24.95;2.03;;;;;;;25.76;58.51;99469.97;7313432;19;129256;-38
2022/08/23 03:08:36;;;;;;;19.60;1.65;;;;;;;25.75;58.51;99474.41;7312909;19;129541;-38
2022/08/23 03:11:01;;;;;;;13.20;1.23;;;;;;;25.75;58.60;99479.69;7312312;19;129315;-40
2022/08/23 03:13:27;;;;;;;34.43;2.73;;;;;;;25.76;59.45;99475.25;7310839;19;130008;-40
2022/08/23 03:15:53;;;;;;;20.93;1.67;;;;;;;25.77;59.96;99476.91;7308824;19;128839;-39
2022/08/23 03:18:19;;;;;;;16.63;1.42;;;;;;;25.77;59.11;99482.97;7311311;19;129330;-40
2022/08/23 03:20:45;;;;;;;14.33;1.23;;;;;;;25.76;59.20;99476.06;7311272;19;131319;-40
2022/08/23 03:23:11;;;;;;;39.90;3.10;;;;;;;25.78;59.01;99479.38;7309443;19;130506;-37
2022/08/23 03:25:36;;;;;;;7.93;0.73;;;;;;;25.71;58.56;99462.59;7309382;19;128862;-38
2022/08/23 03:28:04;;;;;;;15.93;1.50;;;;;;;25.78;59.78;99476.72;7311010;19;129037;-40
2022/08/23 03:30:29;;;;;;;17.63;1.48;;;;;;;25.78;59.78;99476.72;7310634;19;129723;-39
2022/08/23 03:32:55;;;;;;;40.43;3.10;;;;;;;25.79;59.54;99485.44;7309964;19;129587;-40
2022/08/23 03:35:20;;;;;;;13.40;1.13;;;;;;;25.78;59.11;99483.81;7309705;19;128997;-38
2022/08/23 03:37:46;;;;;;;14.87;1.20;;;;;;;25.42;55.64;99486.03;7310626;19;128915;-37
2022/08/23 03:40:11;;;;;;;5.43;0.67;;;;;;;25.45;55.94;99478.59;7309853;19;129542;-39
2022/08/23 03:42:37;;;;;;;33.97;2.67;;;;;;;25.59;57.91;99495.53;7309692;19;130254;-38
2022/08/23 03:45:03;;;;;;;9.00;0.80;;;;;;;25.66;58.63;99491.25;7309117;19;128975;-38
2022/08/23 03:47:28;;;;;;;16.73;1.50;;;;;;;25.69;58.94;99491.72;7309987;19;129072;-36
2022/08/23 03:49:54;;;;;;;18.87;1.50;;;;;;;25.72;59.45;99493.19;7310260;19;130222;-39
2022/08/23 03:52:19;;;;;;;36.50;2.80;;;;;;;25.73;58.73;99487.75;7309653;19;129209;-39
2022/08/23 03:54:44;;;;;;;13.13;1.10;;;;;;;25.74;58.76;99488.56;7308964;19;128871;-39
2022/08/23 03:57:11;;;;;;;17.97;1.63;;;;;;;25.66;59.32;99481.53;7314857;19;129047;-39
2022/08/23 03:59:38;;;;;;;27.02;2.10;;;;;;;25.75;59.26;99494.69;7317157;19;130144;-37
2022/08/23 04:02:05;;;;;;;29.40;2.30;;;;;;;25.75;58.93;99495.47;7316549;19;131160;-40
2022/08/23 04:04:30;;;;;;;28.75;2.58;;;;;;;25.77;59.76;99497.97;7315343;19;129307;-37
2022/08/23 04:06:56;;;;;;;16.07;1.40;;;;;;;25.78;59.11;99505.69;7316889;19;128937;-38
2022/08/23 04:09:21;;;;;;;23.83;1.97;;;;;;;25.78;59.13;99494.34;7316624;19;129685;-38
2022/08/23 04:11:47;;;;;;;32.10;2.63;;;;;;;25.77;59.96;99493.50;7316690;19;130467;-38
2022/08/23 04:14:13;;;;;;;14.30;1.43;;;;;;;25.77;59.63;99498.78;7317053;19;129358;-38
2022/08/23 04:16:39;;;;;;;14.07;1.10;;;;;;;25.76;58.56;99494.50;7316941;19;129535;-39
2022/08/23 04:19:11;;;;;;;37.27;2.93;;;;;;;25.76;60.43;99497.16;7316345;19;129171;-38
2022/08/23 04:21:41;;;;;;;42.83;3.60;;;;;;;25.76;59.58;99494.50;7315474;19;129375;-38
2022/08/23 04:24:07;;;;;;;17.02;1.58;;;;;;;25.47;55.38;99502.13;7314820;19;129163;-39
2022/08/23 04:26:33;;;;;;;4.63;0.50;;;;;;;25.43;55.74;99500.81;7316668;19;129355;-38
2022/08/23 04:28:58;;;;;;;22.07;1.77;;;;;;;25.54;56.98;99508.38;7315581;19;129442;-41
2022/08/23 04:31:27;;;;;;;22.77;1.90;;;;;;;25.61;57.73;99504.09;7316363;19;129618;-38
2022/08/23 04:33:55;;;;;;;17.13;1.48;;;;;;;25.66;58.89;99510.50;7317152;19;129134;-38
2022/08/23 04:36:21;;;;;;;16.40;1.40;;;;;;;25.70;58.88;99513.63;7315640;19;128766;-40
2022/08/23 04:38:47;;;;;;;19.90;1.92;;;;;;;25.74;58.89;99507.00;7315775;19;131244;-38
2022/08/23 04:43:56;;;;;;;29.77;2.40;;;;;;;25.73;58.37;99508.81;7316180;19;129579;-38
2022/08/23 04:46:22;;;;;;;18.27;1.60;;;;;;;25.75;59.16;99511.28;7315297;19;129485;-38
2022/08/23 04:48:47;;;;;;;19.00;1.53;;;;;;;25.76;58.77;99518.22;7315935;19;129783;-37
2022/08/23 04:51:14;;;;;;;28.77;2.40;;;;;;;25.74;58.99;99514.91;7314914;19;130236;-39
2022/08/23 04:53:39;;;;;;;26.98;2.30;;;;;;;25.78;58.06;99520.69;7315361;19;129111;-39
2022/08/23 04:56:05;;;;;;;14.40;1.30;;;;;;;25.77;58.74;99519.03;7313534;19;129589;-39
2022/08/23 04:58:32;;;;;;;15.47;1.30;;;;;;;25.77;59.86;99519.84;7315636;19;129276;-39
2022/08/23 05:01:01;;;;;;;;;;;;;;;25.80;60.92;99519.50;7315772;19;129542;-37
2022/08/23 05:03:28;;;;;;;20.73;1.73;;;;;;;25.75;59.17;99516.53;7314122;19;128984;-39
2022/08/23 05:05:54;;;;;;;9.68;1.10;;;;;;;25.75;59.16;99516.53;7313064;19;128888;-38
2022/08/23 05:08:20;;;;;;;13.87;1.30;;;;;;;25.76;59.56;99523.47;7311800;19;129526;-39
2022/08/23 05:10:46;;;;;;;32.53;2.47;;;;;;;25.76;59.12;99518.22;7314868;19;129657;-37
2022/08/23 05:13:12;;;;;;;14.63;1.27;;;;;;;25.32;55.89;99509.84;7315177;19;128905;-39
2022/08/23 05:15:37;;;;;;;14.95;1.27;;;;;;;25.42;54.75;99528.16;7313282;19;129556;-38
2022/08/23 05:18:03;;;;;;;14.63;1.33;;;;;;;25.58;57.39;99539.44;7314699;19;129455;-37
2022/08/23 05:20:28;;;;;;;48.90;3.93;;;;;;;25.64;58.42;99530.06;7314293;19;131644;-37
2022/08/23 05:22:54;;;;;;;19.33;1.57;;;;;;;25.67;58.50;99535.00;7314267;19;128794;-39
2022/08/23 05:25:20;;;;;;;20.17;1.67;;;;;;;25.70;58.29;99530.22;7312872;19;129122;-38
2022/08/23 05:27:45;;;;;;;14.82;1.30;;;;;;;25.74;58.97;99530.72;7314332;19;129379;-37
2022/08/23 05:30:11;;;;;;;27.97;2.27;;;;;;;25.67;59.29;99524.47;7314421;19;130369;-37
2022/08/23 05:32:37;;;;;;;18.60;1.50;;;;;;;25.74;58.42;99530.72;7314595;19;128851;-40
2022/08/23 05:35:03;;;;;;;17.15;1.63;;;;;;;25.76;58.74;99533.19;7312210;19;128954;-38
2022/08/23 05:37:29;;;;;;;16.73;1.40;;;;;;;25.76;58.76;99531.38;7313744;19;129424;-38
2022/08/23 05:39:54;;;;;;;40.30;3.07;;;;;;;25.75;59.25;99527.09;7313970;19;129633;-40
2022/08/23 05:42:19;;;;;;;16.83;1.50;;;;;;;25.77;58.99;99535.66;7314540;19;128887;-38
2022/08/23 05:44:45;;;;;;;14.37;1.17;;;;;;;25.75;59.17;99540.25;7311821;19;129179;-39
2022/08/23 05:47:13;;;;;;;18.13;1.57;;;;;;;25.76;59.61;99538.44;7313431;19;129142;-39
2022/08/23 05:49:39;;;;;;;36.20;3.08;;;;;;;25.76;58.83;99544.53;7313629;19;129424;-41
2022/08/23 05:52:07;;;;;;;15.37;1.23;;;;;;;25.77;59.04;99545.38;7313975;19;128916;-40
2022/08/23 05:54:33;;;;;;;17.10;1.40;;;;;;;25.77;59.66;99535.66;7313187;19;129770;-39
2022/08/23 05:56:58;;;;;;;15.53;1.37;;;;;;;25.77;58.79;99548.81;7314020;19;129986;-37
2022/08/23 05:59:23;;;;;;;36.47;2.87;;;;;;;25.46;55.78;99539.97;7314168;19;130279;-40
2022/08/23 06:01:49;;;;;;;14.93;1.40;;;;;;;25.34;55.22;99538.63;7314371;19;128926;-37
2022/08/23 06:04:15;;;;;;;19.47;1.67;;;;;;;25.52;57.33;99544.56;7312013;19;129178;-38
2022/08/23 06:06:42;;;;;;;22.10;1.83;;;;;;;25.62;57.53;99547.84;7314296;19;130081;-39
2022/08/23 06:09:12;;;;;;;26.25;2.13;;;;;;;25.65;59.03;99548.34;7313832;19;129610;-37
2022/08/23 06:11:37;;;;;;;30.98;2.97;;;;;;;25.70;58.14;99553.94;7313424;19;129297;-38
2022/08/23 06:14:05;;;;;;;19.07;1.77;;;;;;;25.73;59.20;99555.41;7313040;19;129292;-37
2022/08/23 06:16:34;;;;;;;20.48;1.73;;;;;;;25.70;59.06;99551.28;7312813;19;129376;-38
2022/08/23 06:19:02;;;;;;;41.70;3.17;;;;;;;25.72;59.36;99552.97;7311419;19;129366;-40
2022/08/23 06:21:29;;;;;;;27.15;2.58;;;;;;;25.73;59.40;99561.50;7314125;19;129331;-40
2022/08/23 06:23:55;;;;;;;16.40;1.48;;;;;;;25.64;59.62;99545.88;7311228;19;129224;-39
2022/08/23 06:26:26;;;;;;;26.70;2.33;;;;;;;25.73;59.65;99559.84;7312843;19;130041;-36
2022/08/23 06:28:54;;;;;;;22.55;1.92;;;;;;;25.70;60.25;99548.66;7313101;19;129243;-36
2022/08/23 06:34:07;;;;;;;22.20;2.05;;;;;;;25.73;59.02;99555.41;7313447;19;128573;-38
2022/08/23 06:36:33;;;;;;;17.60;1.50;;;;;;;25.64;58.92;99536.19;7312439;19;129342;-39
2022/08/23 06:38:58;;;;;;;7.93;0.77;;;;;;;25.73;58.95;99555.41;7312603;19;130433;-39
2022/08/23 06:41:24;;;;;;;48.00;4.00;;;;;;;25.75;59.39;99563.94;7311696;19;129122;-39
2022/08/23 06:43:50;;;;;;;13.40;1.43;;;;;;;25.75;59.64;99565.78;7311143;19;128776;-40
2022/08/23 06:46:20;;;;;;;14.97;1.23;;;;;;;25.42;55.64;99568.44;7311876;19;130590;-40
2022/08/23 06:48:45;;;;;;;15.02;1.33;;;;;;;25.39;54.68;99566.13;7311832;19;131074;-38
2022/08/23 06:51:13;;;;;;;34.57;2.63;;;;;;;25.51;57.44;99577.16;7312293;19;129311;-36
2022/08/23 06:53:39;;;;;;;21.52;1.83;;;;;;;25.57;58.51;99572.06;7311879;19;129525;-40
2022/08/23 06:56:04;;;;;;;12.73;1.20;;;;;;;25.65;59.21;99579.13;7309061;19;129801;-39
2022/08/23 06:58:30;;;;;;;11.83;1.23;;;;;;;25.68;59.22;99573.53;7312072;19;129768;-37
2022/08/23 07:01:07;;;;;;;41.40;3.20;;;;;;;25.61;59.29;99562.00;7312325;19;128698;-39
2022/08/23 07:03:32;;;;;;;32.85;2.70;;;;;;;25.72;59.45;99579.28;7311349;19;129364;-40
2022/08/23 07:05:58;;;;;;;15.17;1.30;;;;;;;25.72;59.13;99577.47;7309023;19;130182;-39
2022/08/23 07:08:23;;;;;;;15.07;1.20;;;;;;;25.73;58.25;99581.75;7311412;19;129862;-39
2022/08/23 07:10:49;;;;;;;27.50;2.43;;;;;;;25.74;59.30;99588.66;7310742;19;129184;-37
2022/08/23 07:13:15;;;;;;;24.27;1.97;;;;;;;25.73;59.26;99591.47;7311138;19;129227;-39
2022/08/23 07:15:41;;;;;;;16.60;1.48;;;;;;;25.71;58.33;99581.09;7309372;19;130298;-38
2022/08/23 07:18:06;;;;;;;16.53;1.30;;;;;;;25.72;59.35;99595.91;7310729;19;130244;-38
2022/08/23 07:20:31;;;;;;;36.20;2.93;;;;;;;25.72;59.41;99589.81;7311144;19;129301;-38
2022/08/23 07:22:57;;;;;;;18.33;1.47;;;;;;;25.62;59.53;99584.72;7311204;19;129051;-39
2022/08/23 07:25:23;;;;;;;20.27;1.80;;;;;;;25.71;59.35;99599.53;7307521;19;129420;-38
2022/08/23 07:27:48;;;;;;;6.30;0.70;;;;;;;25.71;59.11;99596.91;7310525;19;130891;-39
2022/08/23 07:30:14;;;;;;;32.03;2.60;;;;;;;25.69;59.42;99593.59;7310655;19;128918;-38
2022/08/23 07:32:39;;;;;;;15.03;1.27;;;;;;;25.42;55.30;99604.47;7317843;19;128861;-38
2022/08/23 07:35:05;;;;;;;16.40;1.33;;;;;;;25.38;55.25;99597.88;7315110;19;129482;-39
2022/08/23 07:37:31;;;;;;;15.77;1.30;;;;;;;25.49;57.37;99605.44;7317453;19;131360;-37
2022/08/23 07:39:56;;;;;;;44.67;3.57;;;;;;;25.57;58.24;99613.34;7317225;19;128870;-41
2022/08/23 07:42:21;;;;;;;11.13;1.10;;;;;;;25.63;58.60;99600.34;7317019;19;128794;-37
2022/08/23 07:44:47;;;;;;;15.90;1.40;;;;;;;25.67;58.60;99600.84;7315211;19;129136;-37
2022/08/23 07:47:13;;;;;;;25.43;2.20;;;;;;;25.69;58.42;99601.50;7317032;19;130535;-38
2022/08/23 07:49:38;;;;;;;34.47;2.87;;;;;;;25.71;58.66;99602.16;7317497;19;129393;-40
2022/08/23 07:52:03;;;;;;;14.07;1.27;;;;;;;25.68;58.91;99595.41;7316763;19;128807;-38
2022/08/23 07:54:29;;;;;;;19.93;1.80;;;;;;;25.72;58.63;99601.16;7315681;19;130755;-38
2022/08/23 07:56:54;;;;;;;26.53;2.07;;;;;;;25.72;58.97;99595.91;7316152;19;129349;-37
2022/08/23 07:59:19;;;;;;;26.50;2.10;;;;;;;25.73;59.71;99605.47;7317444;19;128826;-38
2022/08/23 08:01:45;;;;;;;17.57;1.60;;;;;;;25.72;58.67;99606.44;7315919;19;128866;-39
2022/08/23 08:04:11;;;;;;;15.57;1.27;;;;;;;25.73;59.35;99610.72;7314568;19;129548;-37
2022/08/23 08:06:40;;;;;;;34.13;2.60;;;;;;;25.73;60.45;99608.09;7315803;19;129453;-36
2022/08/23 08:09:07;;;;;;;21.30;1.90;;;;;;;25.74;59.26;99612.34;7317185;19;130101;-38
2022/08/23 08:11:33;;;;;;;;;;;;;;;25.69;60.94;99597.06;7315421;19;129663;-37
2022/08/23 08:14:00;;;;;;;20.23;2.00;;;;;;;25.75;59.85;99611.34;7316232;19;129120;-36
2022/08/23 08:16:30;;;;;;;28.60;2.25;;;;;;;25.73;59.40;99616.00;7316271;19;129472;-38
2022/08/23 08:18:58;;;;;;;28.65;2.30;;;;;;;25.46;55.64;99616.31;7316525;19;129271;-40
2022/08/23 08:21:25;;;;;;;17.40;1.55;;;;;;;25.37;54.61;99618.13;7316737;19;129472;-39
2022/08/23 08:23:51;;;;;;;15.02;1.58;;;;;;;25.47;56.44;99625.84;7314490;19;131180;-39
2022/08/23 08:26:17;;;;;;;22.97;1.83;;;;;;;25.56;58.20;99632.78;7315777;19;129253;-37
2022/08/23 08:28:44;;;;;;;30.97;2.47;;;;;;;25.56;58.94;99622.25;7315634;19;129096;-39
2022/08/23 08:31:10;;;;;;;12.90;1.25;;;;;;;25.66;59.26;99628.16;7316614;19;129245;-38
2022/08/23 08:33:36;;;;;;;16.77;1.63;;;;;;;25.68;58.60;99627.00;7314646;19;129410;-40
2022/08/23 08:36:03;;;;;;;18.90;1.60;;;;;;;25.70;59.17;99626.88;7313376;19;129259;-40
2022/08/23 08:38:29;;;;;;;21.30;2.03;;;;;;;25.71;58.28;99615.34;7315856;19;130224;-39
2022/08/23 08:41:16;;;;;;;15.53;1.37;;;;;;;25.70;60.77;99619.75;7316373;19;129194;-39
2022/08/23 08:44:07;;;;;;;15.43;1.42;;;;;;;25.71;60.91;99617.97;7313404;19;129540;-41
2022/08/23 08:46:47;;;;;;;15.88;1.42;;;;;;;25.72;60.52;99616.97;7315756;19;130483;-39
2022/08/23 08:49:38;;;;;;;15.20;1.30;;;;;;;25.72;61.53;99611.69;7316977;19;129127;-38
2022/08/23 08:52:22;;;;;;;16.08;1.40;;;;;;;25.73;60.88;99613.34;7315570;19;129301;-37
2022/08/23 08:54:49;;;;;;;16.25;1.50;;;;;;;25.72;58.75;99616.97;7314967;19;130246;-37
2022/08/23 08:57:18;;;;;;;17.33;1.58;;;;;;;25.72;59.66;99613.53;7314069;19;129621;-39
2022/08/23 08:59:57;;;;;;;19.05;1.58;;;;;;;25.73;60.93;99615.16;7314649;19;128893;-39
2022/08/23 09:02:27;;;;;;;46.75;3.63;;;;;;;25.71;60.22;99617.97;7315485;19;129191;-38
2022/08/23 09:04:53;;;;;;;18.52;1.55;;;;;;;25.69;59.17;99614.66;7314155;19;129243;-40
2022/08/23 09:07:27;;;;;;;16.20;1.43;;;;;;;25.35;54.77;99614.00;7314199;19;129462;-39
2022/08/23 09:10:11;;;;;;;15.65;1.40;;;;;;;25.48;57.11;99619.63;7314659;19;129088;-39
2022/08/23 09:12:40;;;;;;;17.60;1.52;;;;;;;25.55;57.12;99620.59;7313657;19;129058;-39
2022/08/23 09:15:14;;;;;;;29.48;2.35;;;;;;;25.60;58.87;99620.94;7313657;19;130418;-38
2022/08/23 09:17:55;;;;;;;41.15;3.30;;;;;;;25.63;60.15;99607.44;7314542;19;129239;-38
2022/08/23 09:20:23;;;;;;;30.38;2.40;;;;;;;25.67;58.96;99616.63;7315500;19;129658;-40
2022/08/23 09:22:57;;;;;;;4.85;0.65;;;;;;;25.69;59.94;99617.31;7315101;19;129003;-37
2022/08/23 09:25:23;;;;;;;15.63;1.42;;;;;;;25.71;59.49;99617.97;7312251;19;130193;-40
2022/08/23 09:27:49;;;;;;;4.33;0.60;;;;;;;25.70;59.74;99618.97;7314275;19;129447;-37
2022/08/23 09:30:17;;;;;;;33.07;2.63;;;;;;;25.69;58.29;99622.56;7314498;19;129432;-38
2022/08/23 09:32:49;;;;;;;17.60;1.60;;;;;;;25.68;59.20;99615.66;7315380;19;129385;-37
2022/08/23 09:35:21;;;;;;;16.80;1.40;;;;;;;25.69;60.06;99623.41;7313296;19;129471;-39
2022/08/23 09:37:46;;;;;;;16.35;1.42;;;;;;;25.71;58.36;99623.22;7314097;19;130362;-37
2022/08/23 09:40:17;;;;;;;19.43;1.73;;;;;;;25.70;59.55;99619.75;7313812;19;128948;-40
2022/08/23 09:42:42;;;;;;;32.58;2.65;;;;;;;25.69;59.57;99620.75;7313944;19;129399;-39
2022/08/23 09:45:30;;;;;;;8.00;0.97;;;;;;;25.70;61.35;99626.88;7312263;19;129630;-38
2022/08/23 09:47:55;;;;;;;16.43;1.40;;;;;;;25.71;59.06;99620.59;7315489;19;128960;-38
2022/08/23 09:50:35;;;;;;;13.20;1.23;;;;;;;25.69;61.00;99628.66;7314584;19;128988;-38
2022/08/23 09:53:09;;;;;;;15.32;1.52;;;;;;;25.47;56.34;99623.22;7311841;19;128907;-37
2022/08/23 09:55:39;;;;;;;26.98;2.30;;;;;;;25.34;55.08;99625.47;7311158;19;129133;-37
2022/08/23 09:58:30;;;;;;;32.90;2.55;;;;;;;25.41;57.48;99626.50;7313728;19;129315;-39
2022/08/23 10:01:17;;;;;;;38.92;3.15;;;;;;;25.55;59.72;99636.41;7313185;19;129241;-40
2022/08/23 10:03:43;;;;;;;35.58;3.17;;;;;;;25.61;59.36;99635.75;7313322;19;129026;-41
2022/08/23 10:06:14;;;;;;;19.05;1.65;;;;;;;25.64;59.62;99638.88;7311444;19;129785;-37
2022/08/23 10:08:52;;;;;;;13.65;1.25;;;;;;;25.67;60.29;99635.06;7313734;19;129579;-36
2022/08/23 10:11:20;;;;;;;18.90;1.60;;;;;;;25.67;59.49;99640.34;7313168;19;128974;-38
2022/08/23 10:13:46;;;;;;;19.17;1.73;;;;;;;25.67;59.30;99629.81;7312561;19;128869;-38
2022/08/23 10:16:56;;;;;;;36.63;2.90;;;;;;;25.69;60.66;99633.09;7313279;19;129678;-38
2022/08/23 10:19:30;;;;;;;25.52;2.25;;;;;;;25.72;59.05;99642.50;7313939;19;130379;-39
2022/08/23 10:22:17;;;;;;;37.50;3.10;;;;;;;25.69;60.38;99631.31;7312426;19;129324;-37
2022/08/23 10:25:06;;;;;;;32.30;2.70;;;;;;;25.62;61.03;99624.22;7310856;19;128984;-36
2022/08/23 10:31:00;;;;;;;14.43;1.30;;;;;;;25.71;61.26;99636.41;7313308;19;129324;-39
2022/08/23 10:33:31;;;;;;;16.23;1.45;;;;;;;25.71;61.17;99641.66;7312990;19;128696;-39
2022/08/23 10:36:30;;;;;;;31.60;2.55;;;;;;;25.70;60.75;99643.47;7309251;19;128989;-40
2022/08/23 10:39:00;;;;;;;12.93;1.15;;;;;;;25.69;59.41;99638.38;7312698;19;130972;-38
2022/08/23 10:41:57;;;;;;;51.95;4.10;;;;;;;25.34;55.00;99646.53;7312146;19;129742;-38
2022/08/23 10:44:33;;;;;;;24.25;1.85;;;;;;;25.36;54.25;99636.69;7311170;19;129568;-37
2022/08/23 10:47:26;;;;;;;37.65;2.92;;;;;;;25.49;59.42;99637.03;7311837;19;129407;-39
2022/08/23 10:49:53;;;;;;;32.67;2.78;;;;;;;25.54;58.47;99645.28;7311880;19;130071;-39
2022/08/23 10:52:26;;;;;;;16.00;1.33;;;;;;;25.61;59.36;99641.84;7312762;19;130429;-39
2022/08/23 10:54:59;;;;;;;20.17;1.70;;;;;;;25.56;59.88;99627.50;7311207;19;128970;-38
2022/08/23 10:57:32;;;;;;;17.10;1.50;;;;;;;25.65;59.66;99645.78;7312437;19;129059;-37
2022/08/23 10:59:58;;;;;;;17.17;1.55;;;;;;;25.66;59.53;99642.16;7311725;19;129077;-41
2022/08/23 11:02:41;;;;;;;35.53;2.78;;;;;;;25.67;60.56;99649.06;7311020;19;129771;-39
2022/08/23 11:05:28;;;;;;;34.22;2.78;;;;;;;25.69;60.97;99647.09;7313027;19;129218;-39
2022/08/23 11:08:33;;;;;;;20.42;1.75;;;;;;;25.70;61.26;99651.38;7318723;19;128960;-41
2022/08/23 11:10:58;;;;;;;28.88;2.30;;;;;;;25.69;59.10;99648.91;7318424;19;130220;-37
2022/08/23 11:13:29;;;;;;;34.40;2.63;;;;;;;25.69;60.04;99649.72;7318393;19;129287;-41
2022/08/23 11:16:20;;;;;;;13.35;1.27;;;;;;;25.72;61.04;99643.31;7317402;19;129067;-37
2022/08/23 11:18:50;;;;;;;17.77;1.70;;;;;;;25.69;60.49;99644.47;7319609;19;129135;-40
2022/08/23 11:21:24;;;;;;;16.27;1.40;;;;;;;25.70;61.33;99645.31;7318018;19;130166;-37
2022/08/23 11:24:13;;;;;;;3.28;0.40;;;;;;;25.69;59.63;99648.91;7317466;19;130331;-37
2022/08/23 11:26:40;;;;;;;5.25;0.65;;;;;;;25.68;59.13;99636.72;7317698;19;129521;-38
2022/08/23 11:29:05;;;;;;;32.78;2.63;;;;;;;25.38;55.58;99640.00;7317294;19;129327;-39
2022/08/23 11:31:53;;;;;;;34.17;2.97;;;;;;;25.25;54.87;99634.38;7317581;19;130106;-41
2022/08/23 11:34:18;;;;;;;25.98;2.05;;;;;;;25.45;57.24;99641.81;7314996;19;129490;-38
2022/08/23 11:37:25;;;;;;;14.17;1.30;;;;;;;25.55;60.37;99647.75;7318294;19;128867;-37
2022/08/23 11:39:56;;;;;;;18.38;1.60;;;;;;;25.59;60.00;99649.06;7318390;19;129438;-39
2022/08/23 11:42:33;;;;;;;18.02;1.50;;;;;;;25.62;58.97;99650.53;7317650;19;129374;-38
2022/08/23 11:44:59;;;;;;;15.00;1.43;;;;;;;25.56;58.67;99632.78;7315629;19;129421;-38